Eagle Bay — KEBO — position and weather

sailwx.info

Track history (hours):
 
Tides and Currents Weather Stations Pressure Air Temp Water Temp Dewpoint Dewpoint Depression Visibility Wind Speed Wind Dir Waves Ship Positions

Eagle Bay

Owner: EXXON COMMUNICATIONS COMPANY, THE WOODLANDS, TX. More information available from US FCC via Universal Licensing System and Coast Guard Vessel Documentation Center.

Last reported at 2018-Jan-17 21:00 UTC. Time now 2018-Jan-18 13:49 UTC.
Position N 51°36' W 137°42'.

Length 251 m; draft 7.3 m.

Type: Tanker. MMSI: 338500000.

Wind from 050 at 35 knots

Barometer 979.0 mb
Air temperature 6.7 ° C
Visibility: greater than 5.4 NM
Water temperature 7.8 ° C

Date/timePositionNaut miles runAvg speedWind from/ knotsBaromVisibWave heightAir tempDewpointWater temp
2018-Jan-17 21:00N 51°36' W 137°42'   050 / 35979.0 5.4 6.7 7.8
2018-Jan-11 23:00N 54°42' W 140°42'64614.0 180 / 131009.0 5.4 5.6 7.0
2018-Jan-10 00:50N 48°32' W 126°31'513.8
2018-Jan-10 00:30N 48°32' W 126°24'713.8
2018-Jan-10 00:00N 48°32' W 126°13'713.3
2018-Jan-09 23:30N 48°32' W 126°03'613.0
2018-Jan-09 23:00N 48°31' W 125°54'713.4
2018-Jan-09 22:30N 48°31' W 125°43'713.7
2018-Jan-09 22:01N 48°31' W 125°33'713.7
2018-Jan-09 21:30N 48°31' W 125°23'713.6
2018-Jan-09 21:01N 48°31' W 125°13'713.8
2018-Jan-09 20:30N 48°31' W 125°02'714.3
2018-Jan-09 20:00N 48°31' W 124°51'713.7
2018-Jan-09 19:30N 48°30' W 124°41'713.3
2018-Jan-09 19:00N 48°28' W 124°32'713.6
2018-Jan-09 18:30N 48°25' W 124°22'713.7
2018-Jan-09 18:01N 48°22' W 124°13'714.0
2018-Jan-09 17:30N 48°19' W 124°03'713.1
2018-Jan-09 17:00N 48°17' W 123°54'713.1
2018-Jan-09 16:28N 48°16' W 123°44'1212.9
2018-Jan-09 15:33N 48°13' W 123°26'  
Track history (hours):
 
Tides and Currents Weather Stations Pressure Air Temp Water Temp Dewpoint Dewpoint Depression Visibility Wind Speed Wind Dir Waves Ship Positions

Eagle Bay

Owner: EXXON COMMUNICATIONS COMPANY, THE WOODLANDS, TX. More information available from US FCC via Universal Licensing System and Coast Guard Vessel Documentation Center.

Last reported at 2018-Jan-17 21:00 UTC. Time now 2018-Jan-18 13:49 UTC.
Position N 51°36' W 137°42'.

Length 251 m; draft 7.3 m.

Type: Tanker. MMSI: 338500000.

Wind from 050 at 35 knots

Barometer 979.0 mb
Air temperature 6.7 ° C
Visibility: greater than 5.4 NM
Water temperature 7.8 ° C

Date/timePositionNaut miles runAvg speedWind from/ knotsBaromVisibWave heightAir tempDewpointWater temp
2018-Jan-17 21:00N 51°36' W 137°42'   050 / 35979.0 5.4 6.7 7.8
2018-Jan-11 23:00N 54°42' W 140°42'64614.0 180 / 131009.0 5.4 5.6 7.0
2018-Jan-10 00:50N 48°32' W 126°31'513.8
2018-Jan-10 00:30N 48°32' W 126°24'713.8
2018-Jan-10 00:00N 48°32' W 126°13'713.3
2018-Jan-09 23:30N 48°32' W 126°03'613.0
2018-Jan-09 23:00N 48°31' W 125°54'713.4
2018-Jan-09 22:30N 48°31' W 125°43'713.7
2018-Jan-09 22:01N 48°31' W 125°33'713.7
2018-Jan-09 21:30N 48°31' W 125°23'713.6
2018-Jan-09 21:01N 48°31' W 125°13'713.8
2018-Jan-09 20:30N 48°31' W 125°02'714.3
2018-Jan-09 20:00N 48°31' W 124°51'713.7
2018-Jan-09 19:30N 48°30' W 124°41'713.3
2018-Jan-09 19:00N 48°28' W 124°32'713.6
2018-Jan-09 18:30N 48°25' W 124°22'713.7
2018-Jan-09 18:01N 48°22' W 124°13'714.0
2018-Jan-09 17:30N 48°19' W 124°03'713.1
2018-Jan-09 17:00N 48°17' W 123°54'713.1
2018-Jan-09 16:28N 48°16' W 123°44'1212.9
2018-Jan-09 15:33N 48°13' W 123°26'  

Dump ship's entire track history